Aquasco, MD

6:01 PM EDT on September 03, 2015 (GMT -0400)
Hugesville/Waldorf - Hidden Valley | | Change Station
CLOSE
Current Station
Personal Weather Station
Location: Waldorf, MD
Elevation: 174 ft
Nearby Weather Stations
Active Advisory: Severe Thunderstorm Warning

Elev 174 ft 38.56 °N, 76.79 °W | Updated 3 minutes ago

Mostly Cloudy
Mostly Cloudy
77.8 °F
Feels Like 80 °F
N
0.0
Wind Variable Wind from SE
Gusts 0.0 mph

Today
High -- | Low -- °F
--% Chance of Precip.
Yesterday
High -- | Low -- °F
Precip. -- in
6:37 AM 7:34 PM
Waning Gibbous, 66% visible
Pressure 29.87 in
Visibility 10.0 miles
Clouds Clear
Heat Index 80 °F
Dew Point 77 °F
Humidity 97%
Rainfall 0.34 in
Snow Depth Not available.
UV 1 out of 12
Pollen 10.50 out of 12
Air Quality Not available.
Flu Activity Not available.
METAR KADW 032158Z AUTO 26004KT 10SM -TSRA CLR 28/21 A2985 RMK AO2 LTG DSNT SW-W RAB44 TSB04E22TSB42 SLP113 P0001 T02780206
Pressure 29.87 in
Visibility 10.0 miles
Clouds Clear
Heat Index 80 °F
Dew Point 77 °F
Humidity 97%
Rainfall 0.34 in
Snow Depth Not available.
UV 1 out of 12
Pollen 10.50 out of 12
Air Quality Not available.
Flu Activity Not available.
METAR KADW 032158Z AUTO 26004KT 10SM -TSRA CLR 28/21 A2985 RMK AO2 LTG DSNT SW-W RAB44 TSB04E22TSB42 SLP113 P0001 T02780206

10-Day Weather Forecast

×

Almanac

Astronomy

Sep. 03, 2015 Rise Set
Actual Time
Civil Twilight
Nautical Twilight
Astronomical Twilight
Moon
Length of Visible Light
Length of Day
Tomorrow will be .
, % of the Moon is Illuminated

Today's Extremes

State Highs State Lows

Community

WunderPhotos

Upload Photos

1,852,046 photos uploaded!

WunderBlogs® & News

Nearby

Air Quality

  Air Quality AQ Index Pollutant
Not available.

Snow Depth

Station Depth Elevation

Earthquake Activity

City Distance Mag. Time & Date
Minimum magnitude displayed is 2.5.

Coastal Water Temperatures

Place Temperature

Stations

Nearby Weather Stations

Station Location Temp. Windchill Dew Point Humidity Wind Precip. Elev Updated Type
                   
Severe Thunderstorm Warning
Statement as of 5:54 PM EDT on September 03, 2015

... The Severe Thunderstorm Warning for the southeastern District of
Columbia and west central Prince Georges counties will expire at 600
PM EDT...

the storm which prompted the warning has weakened below severe
limits... and no longer poses an immediate threat to life or property.
Therefore the warning will be allowed to expire.

Lat... Lon 3883 7702 3888 7692 3882 7682 3873 7696
time... Mot... loc 2152z 322deg 13kt 3880 7694


Rcm